createdAt,value
2022-12-05T00:03:34.264Z,19.40
2022-12-05T00:08:35.984Z,19.45
2022-12-05T00:13:39.984Z,19.73
2022-12-05T00:18:42.493Z,21.10
2022-12-05T00:23:44.684Z,20.00
2022-12-05T00:28:46.686Z,21.30
2022-12-05T00:33:49.296Z,20.23
2022-12-05T00:38:51.871Z,19.58
2022-12-05T00:43:54.880Z,19.40
2022-12-05T00:48:58.516Z,20.38
2022-12-05T00:54:02.503Z,21.13
2022-12-05T00:59:05.595Z,21.50
2022-12-05T01:04:11.574Z,19.27
2022-12-05T01:09:15.751Z,20.42
2022-12-05T01:14:19.903Z,21.38
2022-12-05T01:19:24.890Z,20.50
2022-12-05T01:24:28.928Z,17.98
2022-12-05T01:29:30.735Z,18.27
2022-12-05T01:34:32.457Z,20.48
2022-12-05T01:39:34.164Z,19.25
2022-12-05T01:44:35.819Z,18.75
2022-12-05T01:49:41.315Z,18.77
2022-12-05T01:54:46.029Z,18.02
2022-12-05T01:59:52.884Z,19.77
2022-12-05T02:04:57.518Z,19.00
2022-12-05T02:09:59.730Z,17.60
2022-12-05T02:15:22.860Z,19.60
2022-12-05T02:20:49.196Z,16.92
2022-12-05T02:25:56.707Z,18.08
2022-12-05T02:31:08.790Z,18.55
2022-12-05T02:36:14.575Z,18.95
2022-12-05T02:41:34.104Z,14.68
2022-12-05T02:46:39.393Z,16.17
2022-12-05T02:51:53.126Z,17.90
2022-12-05T02:56:56.756Z,17.35
2022-12-05T03:01:58.481Z,17.77
2022-12-05T03:07:05.114Z,15.80
2022-12-05T03:12:13.148Z,16.38
2022-12-05T03:17:19.099Z,15.70
2022-12-05T03:22:35.668Z,17.08
2022-12-05T03:27:52.381Z,15.77
2022-12-05T03:33:03.777Z,14.00
2022-12-05T03:38:05.394Z,14.63
2022-12-05T03:43:14.736Z,12.20
2022-12-05T03:48:44.238Z,13.07
2022-12-05T03:53:56.252Z,13.27
2022-12-05T03:59:34.715Z,12.77
2022-12-05T04:04:40.665Z,10.55
2022-12-05T04:09:50.246Z,11.57
2022-12-05T04:14:59.423Z,11.98
2022-12-05T04:20:24.062Z,12.10
2022-12-05T04:25:34.166Z,11.93
2022-12-05T04:30:43.109Z,11.45
2022-12-05T04:35:53.098Z,12.10
2022-12-05T04:41:01.493Z,12.52
2022-12-05T04:46:07.203Z,12.90
2022-12-05T04:51:17.422Z,11.90
2022-12-05T04:56:22.653Z,13.18
2022-12-05T05:01:38.513Z,12.60
2022-12-05T05:06:41.394Z,13.70
2022-12-05T05:11:43.144Z,12.50
2022-12-05T05:16:44.923Z,13.27
2022-12-05T05:21:46.646Z,12.82
2022-12-05T05:26:52.477Z,12.60
2022-12-05T05:31:57.243Z,13.45
2022-12-05T05:36:58.950Z,13.50
2022-12-05T05:42:00.637Z,13.10
2022-12-05T05:47:02.347Z,13.20
2022-12-05T05:52:04.217Z,13.05
2022-12-05T05:57:05.878Z,13.45
2022-12-05T06:02:07.626Z,13.25
2022-12-05T06:07:09.302Z,13.90
2022-12-05T06:12:11.009Z,14.18
2022-12-05T06:17:12.676Z,11.93
2022-12-05T06:22:14.410Z,13.88
2022-12-05T06:27:16.079Z,13.68
2022-12-05T06:32:17.739Z,13.25
2022-12-05T06:37:19.423Z,14.63
2022-12-05T06:42:22.446Z,14.40
2022-12-05T06:47:24.156Z,14.25
2022-12-05T06:52:25.834Z,15.13
2022-12-05T06:57:31.293Z,14.38
2022-12-05T07:02:33.180Z,14.88
2022-12-05T07:07:35.014Z,12.38
2022-12-05T07:12:36.815Z,13.98
2022-12-05T07:17:39.202Z,13.45
2022-12-05T07:22:40.913Z,13.23
2022-12-05T07:27:42.598Z,13.63
2022-12-05T07:32:44.344Z,14.75
2022-12-05T07:37:46.044Z,14.50
2022-12-05T07:42:53.470Z,14.05
2022-12-05T07:47:55.240Z,17.17
2022-12-05T07:52:57.041Z,22.77
2022-12-05T07:57:58.716Z,21.63
2022-12-05T08:03:03.298Z,21.08
2022-12-05T08:08:05.494Z,19.42
2022-12-05T08:13:08.531Z,19.00
2022-12-05T08:18:11.485Z,19.45
2022-12-05T08:23:13.151Z,17.98
2022-12-05T08:28:14.816Z,18.35
2022-12-05T08:33:16.507Z,18.98
2022-12-05T08:38:18.214Z,18.75
2022-12-05T08:43:19.896Z,26.52
2022-12-05T08:48:27.549Z,17.60
2022-12-05T08:53:30.820Z,17.08
2022-12-05T08:58:32.620Z,17.88
2022-12-05T09:03:34.455Z,16.30
2022-12-05T09:08:36.819Z,14.77
2022-12-05T09:13:38.993Z,17.50
2022-12-05T09:18:41.137Z,16.63
2022-12-05T09:23:44.240Z,16.67
2022-12-05T09:28:46.037Z,18.63
2022-12-05T09:33:49.058Z,14.57
2022-12-05T09:38:52.038Z,16.27
2022-12-05T09:44:12.987Z,14.90
2022-12-05T09:49:14.696Z,14.40
2022-12-05T09:54:17.135Z,13.93
2022-12-05T09:59:20.642Z,14.15
2022-12-05T10:04:46.484Z,12.90
2022-12-05T10:09:56.881Z,14.13
2022-12-05T10:15:13.205Z,14.55
2022-12-05T10:20:28.815Z,12.07
2022-12-05T10:25:32.468Z,13.32
2022-12-05T10:30:36.897Z,14.93
2022-12-05T10:35:40.496Z,12.60
2022-12-05T10:40:46.984Z,13.93
2022-12-05T10:45:48.710Z,12.70
2022-12-05T10:50:56.239Z,11.35
2022-12-05T10:56:29.427Z,10.93
2022-12-05T11:01:19.911Z,11.30
2022-12-05T11:06:28.407Z,10.48
2022-12-05T11:11:35.441Z,9.10
2022-12-05T11:16:38.927Z,10.32
2022-12-05T11:21:44.190Z,9.98
2022-12-05T11:26:46.041Z,9.18
2022-12-05T11:31:52.318Z,8.63
2022-12-05T11:37:04.976Z,10.23
2022-12-05T11:42:15.816Z,7.90
2022-12-05T11:47:49.800Z,8.15
2022-12-05T11:53:22.123Z,7.75
2022-12-05T11:58:25.369Z,7.68
2022-12-05T12:03:54.864Z,7.80
2022-12-05T12:09:12.897Z,8.23
2022-12-05T12:14:25.991Z,7.53
2022-12-05T12:19:54.153Z,8.48
2022-12-05T12:25:03.150Z,8.13
2022-12-05T12:30:15.130Z,9.27
2022-12-05T12:35:32.268Z,7.47
2022-12-05T12:40:59.611Z,8.13
2022-12-05T12:46:16.578Z,7.85
2022-12-05T12:51:18.299Z,7.85
2022-12-05T12:56:25.848Z,8.40
2022-12-05T13:01:34.146Z,8.68
2022-12-05T13:06:39.830Z,8.63
2022-12-05T13:11:46.278Z,9.35
2022-12-05T13:16:52.169Z,7.55
2022-12-05T13:21:57.411Z,7.22
2022-12-05T13:27:02.625Z,7.75
2022-12-05T13:32:05.670Z,7.88
2022-12-05T13:37:36.355Z,8.48
2022-12-05T13:42:38.514Z,8.13
2022-12-05T13:47:46.285Z,7.72
2022-12-05T13:52:52.214Z,6.72
2022-12-05T13:57:57.391Z,6.70
2022-12-05T14:03:16.345Z,5.95
2022-12-05T14:08:35.965Z,6.50
2022-12-05T14:13:43.558Z,7.30
2022-12-05T14:19:05.892Z,6.97
2022-12-05T14:24:27.061Z,7.28
2022-12-05T14:29:37.415Z,7.55
2022-12-05T14:34:54.992Z,7.82
2022-12-05T14:40:00.201Z,8.27
2022-12-05T14:45:21.640Z,10.02
2022-12-05T14:50:32.522Z,9.45
2022-12-05T14:55:36.356Z,10.48
2022-12-05T15:00:38.325Z,9.27
2022-12-05T15:05:43.344Z,12.93
2022-12-05T15:10:45.809Z,15.23
2022-12-05T15:16:06.423Z,9.98
2022-12-05T15:21:21.187Z,10.18
2022-12-05T15:26:55.238Z,8.40
2022-12-05T15:32:25.689Z,9.93
2022-12-05T15:37:51.444Z,9.95
2022-12-05T15:42:57.631Z,11.60
2022-12-05T15:48:02.413Z,12.18
2022-12-05T15:53:34.806Z,10.80
2022-12-05T15:58:47.813Z,10.27
2022-12-05T16:04:00.066Z,10.25
2022-12-05T16:09:10.110Z,10.95
2022-12-05T16:14:18.261Z,10.60
2022-12-05T16:19:32.954Z,10.40
2022-12-05T16:24:48.447Z,9.68
2022-12-05T16:30:29.839Z,9.32
2022-12-05T16:35:36.120Z,10.05
2022-12-05T16:40:57.331Z,8.73
2022-12-05T16:46:28.111Z,9.52
2022-12-05T16:51:40.653Z,10.27
2022-12-05T16:56:42.326Z,9.13
2022-12-05T17:01:43.991Z,8.77
2022-12-05T17:06:45.719Z,9.00
2022-12-05T17:11:51.007Z,8.15
2022-12-05T17:16:52.668Z,9.27
2022-12-05T17:21:54.767Z,9.02
2022-12-05T17:26:56.418Z,9.13
2022-12-05T17:31:58.190Z,8.15
2022-12-05T17:37:00.342Z,8.75
2022-12-05T17:42:02.409Z,8.98
2022-12-05T17:47:07.933Z,9.30
2022-12-05T17:52:26.617Z,8.35
2022-12-05T17:57:28.291Z,9.15
2022-12-05T18:02:29.946Z,8.85
2022-12-05T18:07:31.672Z,9.35
2022-12-05T18:12:34.090Z,10.00
2022-12-05T18:17:35.955Z,8.98
2022-12-05T18:22:37.667Z,9.60
2022-12-05T18:27:39.397Z,10.00
2022-12-05T18:32:41.119Z,9.90
2022-12-05T18:37:42.800Z,10.93
2022-12-05T18:42:44.460Z,10.15
2022-12-05T18:47:46.120Z,10.15
2022-12-05T18:52:47.865Z,11.50
2022-12-05T18:57:49.595Z,10.00
2022-12-05T19:02:52.207Z,10.50
2022-12-05T19:07:54.414Z,10.82
2022-12-05T19:12:57.141Z,11.68
2022-12-05T19:17:58.799Z,9.90
2022-12-05T19:23:01.161Z,10.48
2022-12-05T19:28:03.299Z,10.98
2022-12-05T19:33:04.976Z,11.23
2022-12-05T19:38:06.636Z,11.20
2022-12-05T19:43:08.318Z,10.98
2022-12-05T19:48:09.979Z,10.52
2022-12-05T19:53:12.437Z,10.80
2022-12-05T19:58:14.140Z,11.52
2022-12-05T20:03:15.937Z,11.13
2022-12-05T20:08:17.712Z,10.48
2022-12-05T20:13:45.452Z,10.05
2022-12-05T20:18:42.326Z,10.82
2022-12-05T20:23:44.054Z,11.95
2022-12-05T20:28:46.323Z,11.68
2022-12-05T20:33:50.813Z,10.85
2022-12-05T20:39:01.938Z,11.13
2022-12-05T20:44:07.329Z,10.07
2022-12-05T20:49:09.469Z,10.45
2022-12-05T20:54:16.647Z,10.07
2022-12-05T20:59:18.309Z,8.00
2022-12-05T21:04:20.081Z,7.80
2022-12-05T21:09:30.069Z,6.28
2022-12-05T21:14:34.232Z,6.43
2022-12-05T21:19:35.976Z,7.18
2022-12-05T21:24:37.638Z,4.90
2022-12-05T21:29:39.302Z,5.07
2022-12-05T21:34:40.999Z,5.05
2022-12-05T21:39:42.790Z,4.75
2022-12-05T21:44:44.468Z,4.32
2022-12-05T21:49:46.136Z,4.57
2022-12-05T21:54:48.092Z,4.65
2022-12-05T21:59:49.757Z,4.70
2022-12-05T22:04:51.480Z,4.60
2022-12-05T22:09:53.218Z,5.03
2022-12-05T22:14:54.958Z,4.65
2022-12-05T22:19:57.446Z,5.15
2022-12-05T22:24:59.698Z,5.90
2022-12-05T22:30:01.831Z,5.70
2022-12-05T22:35:04.530Z,5.22
2022-12-05T22:40:07.023Z,5.93
2022-12-05T22:45:09.198Z,5.38
2022-12-05T22:50:11.113Z,5.78
2022-12-05T22:55:12.790Z,6.13
2022-12-05T23:00:15.165Z,6.07
2022-12-05T23:05:16.957Z,6.88
2022-12-05T23:10:18.730Z,6.30
2022-12-05T23:15:20.467Z,5.75
2022-12-05T23:20:22.219Z,6.07
2022-12-05T23:25:23.950Z,5.43
2022-12-05T23:30:25.703Z,6.32
2022-12-05T23:35:27.433Z,5.68
2022-12-05T23:40:29.181Z,5.57
2022-12-05T23:45:30.906Z,5.65
2022-12-05T23:50:32.797Z,5.32
2022-12-05T23:55:34.720Z,5.93
